createdAt,value
2023-02-01T00:04:32.793Z,26.83
2023-02-01T00:10:34.518Z,29.83
2023-02-01T00:16:36.553Z,34.28
2023-02-01T00:22:38.302Z,30.42
2023-02-01T00:28:40.063Z,20.88
2023-02-01T00:34:41.930Z,26.83
2023-02-01T00:40:43.801Z,25.10
2023-02-01T00:46:45.811Z,33.03
2023-02-01T00:52:49.005Z,27.30
2023-02-01T00:58:51.093Z,25.73
2023-02-01T01:04:52.914Z,27.90
2023-02-01T01:10:54.800Z,26.65
2023-02-01T01:16:56.580Z,31.95
2023-02-01T01:22:58.290Z,25.70
2023-02-01T01:29:00.708Z,23.88
2023-02-01T01:35:02.476Z,36.15
2023-02-01T01:41:04.459Z,26.13
2023-02-01T01:47:06.392Z,29.80
2023-02-01T01:53:12.030Z,32.53
2023-02-01T01:59:13.828Z,23.35
2023-02-01T02:05:17.900Z,34.05
2023-02-01T02:11:20.531Z,30.63
2023-02-01T02:17:42.022Z,23.10
2023-02-01T02:24:02.724Z,23.67
2023-02-01T02:30:41.754Z,22.45
2023-02-01T02:36:58.704Z,26.95
2023-02-01T02:43:44.290Z,22.10
2023-02-01T02:50:15.190Z,25.85
2023-02-01T02:56:38.603Z,28.08
2023-02-01T03:02:59.971Z,23.75
2023-02-01T03:09:44.761Z,29.25
2023-02-01T03:16:14.790Z,27.83
2023-02-01T03:22:25.452Z,30.70
2023-02-01T03:28:30.102Z,26.98
2023-02-01T03:34:33.188Z,25.42
2023-02-01T03:40:37.583Z,26.20
2023-02-01T03:47:00.563Z,32.92
2023-02-01T03:53:13.117Z,32.70
2023-02-01T03:59:15.583Z,26.02
2023-02-01T04:05:17.751Z,28.48
2023-02-01T04:11:30.072Z,24.98
2023-02-01T04:17:32.062Z,19.52
2023-02-01T04:23:33.875Z,26.75
2023-02-01T04:29:37.265Z,33.08
2023-02-01T04:35:38.994Z,36.03
2023-02-01T04:41:40.766Z,22.88
2023-02-01T04:47:42.484Z,24.73
2023-02-01T04:53:44.613Z,32.78
2023-02-01T04:59:46.328Z,19.95
2023-02-01T05:05:51.352Z,27.63
2023-02-01T05:12:11.981Z,24.17
2023-02-01T05:18:14.068Z,34.45
2023-02-01T05:24:20.667Z,26.65
2023-02-01T05:30:22.736Z,23.48
2023-02-01T05:36:25.126Z,24.98
2023-02-01T05:42:26.895Z,27.92
2023-02-01T05:48:28.648Z,28.30
2023-02-01T05:54:30.409Z,24.60
2023-02-01T06:00:32.690Z,20.17
2023-02-01T06:06:35.073Z,25.90
2023-02-01T06:12:36.926Z,20.92
2023-02-01T06:18:38.799Z,22.08
2023-02-01T06:24:41.842Z,17.15
2023-02-01T06:30:46.945Z,16.92
2023-02-01T06:36:49.322Z,10.00
2023-02-01T06:42:51.046Z,11.48
2023-02-01T06:48:52.833Z,15.80
2023-02-01T06:54:54.723Z,16.42
2023-02-01T07:00:56.472Z,10.23
2023-02-01T07:06:58.300Z,15.52
2023-02-01T07:13:00.640Z,17.35
2023-02-01T07:19:02.807Z,15.07
2023-02-01T07:25:06.588Z,21.65
2023-02-01T07:31:19.135Z,24.20
2023-02-01T07:37:20.942Z,25.10
2023-02-01T07:43:22.678Z,30.05
2023-02-01T07:49:24.503Z,31.25
2023-02-01T07:55:26.361Z,26.38
2023-02-01T08:01:29.798Z,24.63
2023-02-01T08:07:31.578Z,30.20
2023-02-01T08:13:35.198Z,26.63
2023-02-01T08:19:36.901Z,25.95
2023-02-01T08:25:39.758Z,28.00
2023-02-01T08:31:42.721Z,24.48
2023-02-01T08:37:44.464Z,21.60
2023-02-01T08:43:46.776Z,20.95
2023-02-01T08:49:48.543Z,18.13
2023-02-01T08:55:51.317Z,15.85
2023-02-01T09:01:53.105Z,17.02
2023-02-01T09:07:54.799Z,20.75
2023-02-01T09:13:56.498Z,21.13
2023-02-01T09:19:58.329Z,18.50
2023-02-01T09:26:01.400Z,15.68
2023-02-01T09:32:04.556Z,21.17
2023-02-01T09:38:06.593Z,21.42
2023-02-01T09:44:08.518Z,22.38
2023-02-01T09:50:21.969Z,18.42
2023-02-01T09:56:30.230Z,23.48
2023-02-01T10:02:39.744Z,22.00
2023-02-01T10:08:58.260Z,16.27
2023-02-01T10:15:37.475Z,17.10
2023-02-01T10:22:05.034Z,23.95
2023-02-01T10:28:16.560Z,23.97
2023-02-01T10:34:26.119Z,21.42
2023-02-01T10:40:27.915Z,12.88
2023-02-01T10:46:31.222Z,16.30
2023-02-01T10:53:07.785Z,12.73
2023-02-01T10:59:25.781Z,17.73
2023-02-01T11:11:30.141Z,19.30
2023-02-01T11:17:37.262Z,16.10
2023-02-01T11:23:45.579Z,22.20
2023-02-01T11:29:51.393Z,20.80
2023-02-01T11:35:53.480Z,22.83
2023-02-01T11:42:01.385Z,16.90
2023-02-01T11:48:26.327Z,19.42
2023-02-01T11:54:31.467Z,25.98
2023-02-01T12:00:46.617Z,24.75
2023-02-01T12:06:55.269Z,15.40
2023-02-01T12:13:09.215Z,18.65
2023-02-01T12:19:38.771Z,21.88
2023-02-01T12:26:02.205Z,18.08
2023-02-01T12:32:29.426Z,18.67
2023-02-01T12:38:54.369Z,18.95
2023-02-01T12:45:27.501Z,24.13
2023-02-01T12:51:41.195Z,19.70
2023-02-01T12:57:47.197Z,21.52
2023-02-01T13:03:58.384Z,17.63
2023-02-01T13:10:24.435Z,24.48
2023-02-01T13:16:29.912Z,17.90
2023-02-01T13:22:37.675Z,19.25
2023-02-01T13:28:50.377Z,20.02
2023-02-01T13:35:00.612Z,16.90
2023-02-01T13:41:25.505Z,17.63
2023-02-01T13:47:35.163Z,14.88
2023-02-01T13:53:38.823Z,11.50
2023-02-01T13:59:40.503Z,16.35
2023-02-01T14:05:42.177Z,17.45
2023-02-01T14:11:47.669Z,9.38
2023-02-01T14:17:49.874Z,17.98
2023-02-01T14:23:54.716Z,17.73
2023-02-01T14:30:02.511Z,9.68
2023-02-01T14:36:08.774Z,17.55
2023-02-01T14:42:35.495Z,12.80
2023-02-01T14:48:37.145Z,9.95
2023-02-01T14:54:41.031Z,13.05
2023-02-01T15:00:51.283Z,20.17
2023-02-01T15:06:58.949Z,8.32
2023-02-01T15:13:01.246Z,6.50
2023-02-01T15:19:14.674Z,8.35
2023-02-01T15:25:22.729Z,15.27
2023-02-01T15:31:42.548Z,7.07
2023-02-01T15:37:44.388Z,2.83
2023-02-01T15:43:56.528Z,2.90
2023-02-01T15:50:01.355Z,5.88
2023-02-01T15:56:06.192Z,5.43
2023-02-01T16:02:26.889Z,6.40
2023-02-01T16:08:30.432Z,6.70
2023-02-01T16:14:33.309Z,20.75
2023-02-01T16:20:36.387Z,10.93
2023-02-01T16:26:39.226Z,9.15
2023-02-01T16:32:41.129Z,21.35
2023-02-01T16:38:43.163Z,19.48
2023-02-01T16:44:45.037Z,13.88
2023-02-01T16:50:50.241Z,20.70
2023-02-01T16:56:52.010Z,17.85
2023-02-01T17:02:54.167Z,8.25
2023-02-01T17:09:00.794Z,4.90
2023-02-01T17:15:02.697Z,11.10
2023-02-01T17:21:05.786Z,7.40
2023-02-01T17:27:08.295Z,11.55
2023-02-01T17:33:22.312Z,9.57
2023-02-01T17:39:42.890Z,7.90
2023-02-01T17:46:46.232Z,15.48
2023-02-01T17:53:22.393Z,13.20
2023-02-01T17:59:24.331Z,22.45
2023-02-01T18:05:44.683Z,22.00
2023-02-01T18:11:47.936Z,19.77
2023-02-01T18:17:49.827Z,17.50
2023-02-01T18:23:51.807Z,22.58
2023-02-01T18:29:53.595Z,17.40
2023-02-01T18:35:55.345Z,23.83
2023-02-01T18:41:57.214Z,23.25
2023-02-01T18:47:59.987Z,16.70
2023-02-01T18:54:01.977Z,28.98
2023-02-01T19:00:06.763Z,33.08
2023-02-01T19:06:08.782Z,24.15
2023-02-01T19:12:10.547Z,26.38
2023-02-01T19:18:12.680Z,29.33
2023-02-01T19:24:14.963Z,31.52
2023-02-01T19:30:18.519Z,26.80
2023-02-01T19:36:20.362Z,22.55
2023-02-01T19:42:22.236Z,23.17
2023-02-01T19:48:24.471Z,17.73
2023-02-01T19:54:26.389Z,26.48
2023-02-01T20:00:27.650Z,21.98
2023-02-01T20:06:31.330Z,17.80
2023-02-01T20:12:33.324Z,33.83
2023-02-01T20:18:36.437Z,18.63
2023-02-01T20:25:04.331Z,18.75
2023-02-01T20:31:09.050Z,24.92
2023-02-01T20:37:11.002Z,30.33
2023-02-01T20:43:13.158Z,21.15
2023-02-01T20:49:15.026Z,23.40
2023-02-01T20:55:16.983Z,28.10
2023-02-01T21:01:18.904Z,22.70
2023-02-01T21:07:20.883Z,21.70
2023-02-01T21:13:23.770Z,24.75
2023-02-01T21:19:27.988Z,21.77
2023-02-01T21:25:30.014Z,23.80
2023-02-01T21:31:34.660Z,28.75
2023-02-01T21:37:40.114Z,24.02
2023-02-01T21:43:43.514Z,24.48
2023-02-01T21:49:46.848Z,25.58
2023-02-01T21:55:51.124Z,18.38
2023-02-01T22:01:55.499Z,19.73
2023-02-01T22:07:58.183Z,20.42
2023-02-01T22:14:03.211Z,21.33
2023-02-01T22:20:05.926Z,22.20
2023-02-01T22:26:09.931Z,21.65
2023-02-01T22:32:13.805Z,19.17
2023-02-01T22:38:16.747Z,17.13
2023-02-01T22:44:18.511Z,17.77
2023-02-01T22:50:20.282Z,15.98
2023-02-01T22:56:23.171Z,21.20
2023-02-01T23:02:24.967Z,20.88
2023-02-01T23:08:26.973Z,18.45
2023-02-01T23:14:28.883Z,17.35
2023-02-01T23:20:30.705Z,26.40
2023-02-01T23:26:33.006Z,19.92
2023-02-01T23:32:35.995Z,21.67
2023-02-01T23:38:37.856Z,25.42
2023-02-01T23:44:39.594Z,25.08
2023-02-01T23:50:41.326Z,21.33
2023-02-01T23:56:44.998Z,20.80
